EW3462 City Island NY US current weather conditions

sailwx.info

Wind from 289 at 5 knots gusting 13

Air temperature 3.9° C
Dewpoint -2.5° C

Last reported at 2020-Jan-28 23:00 UTC.
Time now 2020-Jan-28 23:53 UTC

Location: N 40°51' W 073°47'.
View on Google Maps.

See reports from other nearby stations

  
Tides and Currents Weather Stations Pressure Air Temp Water Temp Dewpoint Dewpoint Depression Visibility Wind Speed Wind Dir Waves Ship Positions
date/time (UTC)wind fromknots sea level pressurealtimeterstation pressurevisibilityair tempwater tempwave heightnotes
2020-Jan-28 23:00 289 5 gusting 13 3.9
2020-Jan-28 22:45 311 5 gusting 10 3.9
2020-Jan-28 22:30 319 11 gusting 18 3.9
2020-Jan-28 22:15 300 6 gusting 13 4.4
2020-Jan-28 22:00 316 11 gusting 16 4.4
2020-Jan-28 21:46 302 11 gusting 15 4.4
2020-Jan-28 21:30 300 9 gusting 13 4.4
2020-Jan-28 21:15 289 9 gusting 14 4.4
2020-Jan-28 21:00 326 8 gusting 19 4.4
2020-Jan-28 20:47 292 7 gusting 14 4.4
2020-Jan-28 20:32 307 10 gusting 14 4.4
2020-Jan-28 20:16 299 7 gusting 13 4.4
2020-Jan-28 20:02 311 6 gusting 13 4.4
2020-Jan-28 20:00 309 6 gusting 13 4.4
2020-Jan-28 19:46 307 9 gusting 16 4.4
2020-Jan-28 19:32 304 9 gusting 17 4.4
2020-Jan-28 19:17 304 12 gusting 19 4.4
2020-Jan-28 19:00 327 12 gusting 18 4.4
2020-Jan-28 18:46 328 12 gusting 19 4.4
2020-Jan-28 18:30 324 13 gusting 18 5.0
2020-Jan-28 18:15 318 12 gusting 16 4.4
2020-Jan-28 18:01 296 11 gusting 17 5.0
2020-Jan-28 17:47 306 10 gusting 18 5.0
2020-Jan-28 17:31 300 9 gusting 16 4.4
2020-Jan-28 17:16 302 5 gusting 14 4.4
2020-Jan-28 17:00 292 9 gusting 16 4.4
2020-Jan-28 16:46 293 9 gusting 14 4.4
2020-Jan-28 16:30 304 12 gusting 18 4.4
2020-Jan-28 16:16 304 10 gusting 16 4.4
2020-Jan-28 16:00 288 11 gusting 17 4.4
2020-Jan-28 15:46 308 10 gusting 17 4.4
2020-Jan-28 15:30 342 10 gusting 16 4.4
2020-Jan-28 15:15 347 9 gusting 18 3.9
2020-Jan-28 15:00 315 9 gusting 17 3.9
2020-Jan-28 14:45 311 10 gusting 14 3.9
2020-Jan-28 14:32 305 9 gusting 14 3.9
2020-Jan-28 14:16 311 8 gusting 13 3.3
2020-Jan-28 14:00 340 6 gusting 13 3.3
2020-Jan-28 13:45 314 7 gusting 14 3.3
2020-Jan-28 13:30 297 6 gusting 12 3.3
2020-Jan-28 13:15 282 6 gusting 12 3.3
2020-Jan-28 12:46 300 6 gusting 16 3.3
2020-Jan-28 12:31 302 7 gusting 13 3.3
2020-Jan-28 12:16 307 8 gusting 14 3.3
2020-Jan-28 12:01 321 6 gusting 13 3.3
2020-Jan-28 11:45 308 7 gusting 15 3.3
2020-Jan-28 11:30 319 7 gusting 13 3.3
2020-Jan-28 11:15 300 10 gusting 15 3.3
2020-Jan-28 11:00 302 8 gusting 15 3.3
2020-Jan-28 10:45 307 7 gusting 13 3.3
2020-Jan-28 10:30 321 10 gusting 19 3.3
2020-Jan-28 10:17 308 8 gusting 14 3.3
2020-Jan-28 10:02 304 9 gusting 14 3.3
2020-Jan-28 09:45 317 6 gusting 12 3.3
2020-Jan-28 09:30 302 7 gusting 13 3.3
2020-Jan-28 09:17 316 8 gusting 11 3.3
2020-Jan-28 09:15 305 8 gusting 11 3.3
2020-Jan-28 09:02 317 5 gusting 9 3.3
2020-Jan-28 09:00 295 5 gusting 9 3.3
2020-Jan-28 08:46 307 7 gusting 12 3.3
2020-Jan-28 08:32 342 7 gusting 13 3.3
2020-Jan-28 08:18 303 6 gusting 13 3.3
2020-Jan-28 08:02 304 10 gusting 13 3.3
2020-Jan-28 07:47 311 7 gusting 16 3.3
2020-Jan-28 07:32 299 9 gusting 15 3.3
2020-Jan-28 07:16 309 9 gusting 14 3.9
2020-Jan-28 07:01 291 10 gusting 13 3.9
2020-Jan-28 06:45 305 8 gusting 13 3.9
2020-Jan-28 06:30 312 8 gusting 13 3.9
2020-Jan-28 06:16 295 7 gusting 13 3.9
2020-Jan-28 06:01 297 9 gusting 16 3.9
2020-Jan-28 05:46 307 10 gusting 13 3.9
2020-Jan-28 05:31 291 7 gusting 13 4.4
2020-Jan-28 05:16 313 10 gusting 15 4.4
2020-Jan-28 05:02 308 7 gusting 12 4.4
2020-Jan-28 04:45 311 7 gusting 13 4.4
2020-Jan-28 04:31 298 6 gusting 11 4.4
2020-Jan-28 04:16 311 9 gusting 13 4.4
2020-Jan-28 04:01 305 5 gusting 10 4.4
2020-Jan-28 03:46 295 6 gusting 13 4.4
2020-Jan-28 03:34 299 9 gusting 13 5.0
2020-Jan-28 03:15 300 7 gusting 14 5.0
2020-Jan-28 03:00 279 9 gusting 15 5.0
2020-Jan-28 02:46 297 6 gusting 12 5.0
2020-Jan-28 02:30 268 6 gusting 8 5.0
2020-Jan-28 02:15 299 4 gusting 8 5.0
2020-Jan-28 02:00 294 6 gusting 11 5.0
2020-Jan-28 01:45 293 4 gusting 9 5.6
2020-Jan-28 01:30 292 5 gusting 8 5.6
2020-Jan-28 01:15 293 6 gusting 13 5.6
2020-Jan-28 01:00 299 8 gusting 12 5.6
2020-Jan-28 00:46 293 7 gusting 13 5.6
2020-Jan-28 00:32 298 6 gusting 12 5.6
2020-Jan-28 00:16 292 7 gusting 11 5.6
2020-Jan-28 00:01 305 5 gusting 8 5.6
2020-Jan-27 23:46 302 6 gusting 11 5.6
2020-Jan-27 23:32 297 7 gusting 12 5.6
2020-Jan-27 23:20 299 6 gusting 15 5.6
2020-Jan-27 23:00 302 6 gusting 11 5.6
2020-Jan-27 22:45 298 6 gusting 11 6.1
2020-Jan-27 22:31 301 8 gusting 11 6.1
2020-Jan-27 22:15 297 9 gusting 15 6.1
2020-Jan-27 22:00 293 9 gusting 14 6.1
2020-Jan-27 21:45 312 6 gusting 11 6.7
2020-Jan-27 21:31 302 11 gusting 14 6.7
2020-Jan-27 21:16 289 8 gusting 16 6.7
2020-Jan-27 21:00 297 10 gusting 15 6.7
2020-Jan-27 20:45 294 12 gusting 17 6.7
2020-Jan-27 20:30 284 7 gusting 16 6.7
2020-Jan-27 20:15 284 9 gusting 16 7.2
2020-Jan-27 20:00 297 6 gusting 12 7.2
2020-Jan-27 19:45 245 5 gusting 10 6.7
2020-Jan-27 19:31 271 5 gusting 8 6.1
2020-Jan-27 19:17 264 6 gusting 10 5.6
2020-Jan-27 19:00 268 6 gusting 13 5.6
2020-Jan-27 18:45 260 6 gusting 12 5.6
2020-Jan-27 18:30 252 8 gusting 14 5.6
2020-Jan-27 18:15 261 10 gusting 13 5.6
2020-Jan-27 18:00 253 13 gusting 15 5.6
2020-Jan-27 17:45 266 9 gusting 14 5.6
2020-Jan-27 17:33 286 9 gusting 13 5.0
2020-Jan-27 17:16 250 10 gusting 14 5.0
2020-Jan-27 17:00 266 9 gusting 14 5.0
2020-Jan-27 16:46 260 12 gusting 15 5.0
2020-Jan-27 16:30 266 10 gusting 15 5.0
2020-Jan-27 16:15 287 7 gusting 11 5.0
2020-Jan-27 16:00 270 9 gusting 14 4.4
2020-Jan-27 15:47 253 11 gusting 15 4.4
2020-Jan-27 15:32 261 11 gusting 16 4.4
2020-Jan-27 15:17 271 11 gusting 19 4.4
2020-Jan-27 15:15 263 11 gusting 19 4.4
2020-Jan-27 15:02 262 10 gusting 14 4.4
2020-Jan-27 14:46 254 11 gusting 16 4.4
2020-Jan-27 14:31 259 13 gusting 17 3.9
2020-Jan-27 14:16 261 13 gusting 18 3.9
2020-Jan-27 14:01 258 12 gusting 19 4.4
2020-Jan-27 13:45 267 13 gusting 17 3.9
2020-Jan-27 13:30 262 13 gusting 17 3.9
2020-Jan-27 13:16 262 11 gusting 15 3.9
2020-Jan-27 13:02 264 10 gusting 15 3.9
2020-Jan-27 12:46 268 11 gusting 16 3.9
2020-Jan-27 12:33 262 11 gusting 16 3.3
2020-Jan-27 12:17 266 9 gusting 15 3.3
2020-Jan-27 12:03 262 9 gusting 16 3.3
2020-Jan-27 11:45 249 11 gusting 14 3.3
2020-Jan-27 11:30 254 10 gusting 15 3.3
2020-Jan-27 11:17 266 11 gusting 14 3.3
2020-Jan-27 11:01 255 10 gusting 13 3.3
2020-Jan-27 10:45 263 10 gusting 15 3.3
2020-Jan-27 10:30 259 10 gusting 14 3.3
2020-Jan-27 10:15 258 10 gusting 13 3.3
2020-Jan-27 10:01 257 10 gusting 14 3.3
2020-Jan-27 09:46 248 10 gusting 14 3.3
2020-Jan-27 09:30 268 11 gusting 14 3.3
2020-Jan-27 09:16 257 10 gusting 14 3.3
2020-Jan-27 09:00 266 8 gusting 13 3.3
2020-Jan-27 08:45 278 9 gusting 16 3.3
2020-Jan-27 08:31 260 7 gusting 13 3.3
2020-Jan-27 08:16 270 12 gusting 17 3.3
2020-Jan-27 08:01 264 10 gusting 15 3.9
2020-Jan-27 07:47 269 9 gusting 18 3.9
2020-Jan-27 07:33 271 8 gusting 13 3.9
2020-Jan-27 07:15 274 8 gusting 11 3.9
2020-Jan-27 07:01 254 7 gusting 12 3.9
2020-Jan-27 06:45 264 9 gusting 13 3.9
2020-Jan-27 06:31 245 6 gusting 11 3.9
2020-Jan-27 06:15 260 7 gusting 10 3.9
2020-Jan-27 06:02 265 6 gusting 10 3.9
2020-Jan-27 05:47 281 8 gusting 14 3.9
2020-Jan-27 05:30 269 8 gusting 13 3.9
2020-Jan-27 05:16 273 7 gusting 14 3.9
2020-Jan-27 05:02 276 7 gusting 13 3.9
2020-Jan-27 04:49 269 11 gusting 18 3.9
2020-Jan-27 04:31 285 10 gusting 15 3.9
2020-Jan-27 04:17 282 9 gusting 14 4.4
2020-Jan-27 04:00 286 10 gusting 15 4.4
2020-Jan-27 03:45 263 10 gusting 15 4.4
2020-Jan-27 03:31 257 12 gusting 14 4.4
2020-Jan-27 03:16 261 11 gusting 14 4.4
2020-Jan-27 03:01 267 10 gusting 14 4.4
2020-Jan-27 02:48 281 9 gusting 15 4.4
2020-Jan-27 02:31 271 8 gusting 14 4.4
2020-Jan-27 02:16 281 10 gusting 15 5.0
2020-Jan-27 02:00 262 10 gusting 17 5.0
2020-Jan-27 01:45 258 10 gusting 18 5.0
2020-Jan-27 01:31 277 10 gusting 13 5.6
2020-Jan-27 01:17 284 9 gusting 14 5.6
2020-Jan-27 01:00 288 7 gusting 15 5.6
2020-Jan-27 00:45 288 9 gusting 14 6.1
2020-Jan-27 00:30 274 13 gusting 19 6.1
2020-Jan-27 00:15 275 7 gusting 13 6.1
2020-Jan-27 00:01 262 9 gusting 13 6.1
2020-Jan-26 23:45 262 6 gusting 14 6.1
2020-Jan-26 23:31 271 9 gusting 13 6.1
2020-Jan-26 23:15 283 9 gusting 13 6.1
2020-Jan-26 23:00 280 8 gusting 12 6.7